Time;durP1;ratioP1;P1;durP2;ratioP2;P2;SDS_P1;SDS_P2;PMS_P1;PMS_P2;Temp;Humidity;BMP_temperature;BMP_pressure;BME280_temperature;BME280_humidity;BME280_pressure;Samples;Min_cycle;Max_cycle;Signal;HPM_P1;HPM_P2
2022/10/31 05:37:36;;;;;;;10.93;3.70;;;11.30;99.90;;;;;;11421268;23;20598;-79
2022/10/31 05:42:39;;;;;;;11.10;3.53;;;11.30;99.90;;;;;;10227754;29;20643;-77
2022/10/31 05:47:41;;;;;;;7.82;3.30;;;11.30;99.90;;;;;;10222928;29;20540;-76
2022/10/31 05:52:45;;;;;;;9.93;3.83;;;11.30;99.90;;;;;;10258597;29;20099;-77
2022/10/31 05:57:47;;;;;;;7.28;3.33;;;11.20;99.90;;;;;;10242782;29;20492;-77
2022/10/31 06:02:49;;;;;;;7.93;3.30;;;11.10;99.90;;;;;;10232001;29;20520;-76
2022/10/31 06:07:52;;;;;;;9.85;3.80;;;11.20;99.90;;;;;;10231983;29;20111;-75
2022/10/31 06:12:54;;;;;;;10.77;3.58;;;11.20;99.90;;;;;;10216023;29;20103;-75
2022/10/31 06:18:01;;;;;;;8.35;3.65;;;11.30;99.90;;;;;;10204897;29;20111;-75
2022/10/31 06:23:06;;;;;;;9.93;3.28;;;11.30;99.90;;;;;;10209087;29;20457;-76
2022/10/31 06:28:08;;;;;;;8.75;3.78;;;11.30;99.90;;;;;;10216905;29;20501;-83
2022/10/31 06:33:10;;;;;;;9.68;3.58;;;11.30;99.90;;;;;;10231755;29;20509;-83
2022/10/31 06:38:13;;;;;;;11.27;3.78;;;11.30;99.90;;;;;;10219972;29;20060;-84
2022/10/31 06:43:15;;;;;;;9.40;3.88;;;11.40;99.90;;;;;;10230337;29;20047;-81
2022/10/31 06:48:17;;;;;;;9.45;3.60;;;11.30;99.90;;;;;;10249224;29;20043;-79
2022/10/31 06:53:20;;;;;;;7.18;3.50;;;11.30;99.90;;;;;;10221728;29;20047;-80
2022/10/31 06:58:22;;;;;;;8.70;4.00;;;11.40;99.90;;;;;;10193189;29;20139;-82
2022/10/31 07:03:24;;;;;;;10.35;3.35;;;11.50;99.90;;;;;;10221653;29;20051;-79
2022/10/31 07:08:27;;;;;;;6.00;3.10;;;11.50;99.90;;;;;;10219069;29;20098;-79
2022/10/31 07:13:29;;;;;;;7.55;3.50;;;11.60;99.90;;;;;;10217204;29;20126;-78
2022/10/31 07:18:31;;;;;;;8.80;3.50;;;11.60;99.90;;;;;;10215136;29;20051;-77
2022/10/31 07:23:37;;;;;;;9.00;3.47;;;11.60;99.90;;;;;;10227197;29;20051;-77
2022/10/31 07:28:39;;;;;;;10.20;4.00;;;11.60;99.90;;;;;;10204154;29;20572;-78
2022/10/31 07:33:41;;;;;;;9.85;4.55;;;11.70;99.90;;;;;;10230705;29;20940;-78
2022/10/31 07:38:44;;;;;;;8.32;4.22;;;11.80;99.90;;;;;;10221886;29;20068;-78
2022/10/31 07:43:46;;;;;;;7.88;4.13;;;11.70;99.90;;;;;;10205594;29;20047;-80
2022/10/31 07:48:48;;;;;;;10.93;3.95;;;11.80;99.90;;;;;;10219924;29;20055;-81
2022/10/31 07:53:52;;;;;;;15.50;7.47;;;11.90;99.90;;;;;;10210808;29;20048;-79
2022/10/31 07:58:53;;;;;;;9.60;3.95;;;11.90;99.90;;;;;;10209803;29;20063;-79
2022/10/31 08:03:55;;;;;;;16.33;4.40;;;11.90;99.90;;;;;;10228849;29;20048;-80
2022/10/31 08:08:59;;;;;;;9.60;4.43;;;11.80;99.90;;;;;;10220011;29;20098;-79
2022/10/31 08:14:00;;;;;;;9.35;4.43;;;11.90;99.90;;;;;;10210308;29;20078;-77
2022/10/31 08:19:02;;;;;;;10.50;4.93;;;12.10;99.90;;;;;;10208353;29;20143;-78
2022/10/31 08:24:07;;;;;;;9.30;4.75;;;12.00;99.90;;;;;;10219897;29;20079;-79
2022/10/31 08:29:09;;;;;;;12.40;4.50;;;12.10;99.90;;;;;;10203655;29;20476;-79
2022/10/31 08:34:11;;;;;;;8.77;4.18;;;12.30;99.90;;;;;;10220810;29;20179;-78
2022/10/31 08:39:14;;;;;;;12.38;4.30;;;12.50;99.90;;;;;;10209133;29;20095;-78
2022/10/31 08:44:16;;;;;;;12.68;5.10;;;12.70;99.90;;;;;;10228067;29;20493;-79
2022/10/31 08:49:18;;;;;;;9.73;4.70;;;12.80;99.90;;;;;;10209764;29;20052;-80
2022/10/31 08:54:21;;;;;;;11.23;5.03;;;12.90;99.90;;;;;;10220970;29;20083;-79
2022/10/31 08:59:23;;;;;;;12.07;4.35;;;13.00;99.90;;;;;;10222066;29;20060;-78
2022/10/31 09:04:25;;;;;;;10.00;4.70;;;13.10;99.90;;;;;;10201201;29;20052;-79
2022/10/31 09:09:28;;;;;;;11.93;4.85;;;13.30;99.90;;;;;;10211692;29;20461;-80
2022/10/31 09:14:30;;;;;;;10.68;4.55;;;13.50;99.90;;;;;;10223937;29;20460;-79
2022/10/31 09:19:32;;;;;;;10.65;4.32;;;13.50;99.90;;;;;;10245528;29;20063;-79
2022/10/31 09:24:35;;;;;;;10.68;4.70;;;13.60;99.90;;;;;;10245221;29;20058;-79
2022/10/31 09:29:37;;;;;;;10.93;4.65;;;13.80;99.90;;;;;;10208402;29;20083;-79
2022/10/31 09:34:39;;;;;;;10.88;4.18;;;13.90;99.90;;;;;;10218977;29;20055;-75
2022/10/31 09:39:42;;;;;;;9.48;4.10;;;14.00;99.90;;;;;;10210743;29;20150;-77
2022/10/31 09:44:54;;;;;;;11.50;4.53;;;14.20;99.90;;;;;;10224541;29;20043;-76
2022/10/31 09:50:13;;;;;;;10.23;4.28;;;14.30;99.90;;;;;;10235942;29;20130;-76
2022/10/31 09:55:22;;;;;;;9.43;4.38;;;14.40;99.90;;;;;;10236819;29;20099;-80
2022/10/31 10:00:24;;;;;;;11.52;4.20;;;14.60;99.90;;;;;;10215590;29;20083;-77
2022/10/31 10:05:33;;;;;;;12.43;4.53;;;14.70;99.90;;;;;;10242019;29;20477;-77
2022/10/31 10:10:49;;;;;;;16.25;4.15;;;14.90;99.90;;;;;;10248385;29;20342;-77
2022/10/31 10:16:11;;;;;;;9.55;4.20;;;14.90;99.90;;;;;;10220285;28;20516;-78
2022/10/31 10:21:30;;;;;;;13.45;3.95;;;15.10;99.90;;;;;;10213485;29;20446;-79
2022/10/31 10:26:38;;;;;;;10.77;3.88;;;15.20;99.90;;;;;;10228191;29;20150;-77
2022/10/31 10:31:45;;;;;;;10.10;3.87;;;15.30;99.90;;;;;;10216458;29;20122;-78
2022/10/31 10:36:54;;;;;;;7.78;3.78;;;15.40;99.90;;;;;;10226853;29;20307;-76
2022/10/31 10:47:38;;;;;;;12.38;3.95;;;15.60;99.90;;;;;;10237540;29;20939;-76
2022/10/31 10:52:50;;;;;;;11.98;4.20;;;15.80;99.90;;;;;;10210442;29;20054;-76
2022/10/31 10:57:59;;;;;;;9.05;3.53;;;15.90;99.90;;;;;;10222625;29;20059;-77
2022/10/31 11:03:01;;;;;;;11.82;3.50;;;16.10;99.90;;;;;;10225714;29;20075;-76
2022/10/31 11:08:04;;;;;;;11.90;4.20;;;16.20;99.90;;;;;;10221997;29;20059;-77
2022/10/31 11:13:23;;;;;;;12.40;4.20;;;16.40;99.90;;;;;;10195180;29;20114;-79
2022/10/31 11:18:28;;;;;;;14.50;4.60;;;16.60;99.90;;;;;;10230799;29;20480;-76
2022/10/31 11:23:31;;;;;;;12.90;5.13;;;16.60;99.90;;;;;;10215916;29;20630;-78
2022/10/31 11:28:35;;;;;;;11.45;4.90;;;16.70;99.90;;;;;;10210152;29;20098;-77
2022/10/31 11:33:40;;;;;;;12.13;5.05;;;16.80;99.90;;;;;;10209863;29;20131;-78
2022/10/31 11:38:44;;;;;;;11.38;4.82;;;16.90;99.90;;;;;;10212830;29;20064;-77
2022/10/31 11:43:52;;;;;;;9.40;4.38;;;17.20;99.90;;;;;;10212122;29;20052;-77
2022/10/31 11:48:56;;;;;;;11.37;4.13;;;17.40;99.90;;;;;;10213809;29;20482;-77
2022/10/31 11:54:02;;;;;;;9.43;4.30;;;17.60;99.90;;;;;;10212173;29;20106;-77
2022/10/31 11:59:26;;;;;;;9.93;4.00;;;17.70;99.90;;;;;;10211215;29;20063;-77
2022/10/31 12:04:39;;;;;;;8.90;3.97;;;18.00;99.90;;;;;;10210734;29;20103;-78
2022/10/31 12:09:42;;;;;;;11.13;4.10;;;18.10;99.90;;;;;;10209277;29;20553;-76
2022/10/31 12:14:58;;;;;;;11.07;4.25;;;18.20;99.90;;;;;;10216378;29;20167;-78
2022/10/31 12:20:11;;;;;;;9.88;4.05;;;18.20;99.90;;;;;;10205913;29;20103;-79
2022/10/31 12:25:29;;;;;;;11.10;4.28;;;18.20;99.90;;;;;;10195533;29;20060;-77
2022/10/31 12:30:49;;;;;;;15.57;7.33;;;18.10;99.90;;;;;;10211638;29;20043;-76
2022/10/31 12:36:09;;;;;;;10.85;4.45;;;18.00;99.90;;;;;;10197617;29;20786;-74
2022/10/31 12:41:47;;;;;;;11.32;4.05;;;18.00;99.90;;;;;;10188815;29;20142;-76
2022/10/31 12:47:11;;;;;;;9.23;3.90;;;18.00;99.90;;;;;;10216329;29;20054;-79
2022/10/31 12:52:32;;;;;;;7.93;4.05;;;17.80;99.90;;;;;;10248367;29;20051;-78
2022/10/31 12:57:39;;;;;;;10.60;4.57;;;17.80;99.90;;;;;;10229232;28;20086;-76
2022/10/31 13:02:50;;;;;;;9.57;4.20;;;17.90;99.90;;;;;;10207149;29;20473;-77
2022/10/31 13:07:59;;;;;;;9.65;4.32;;;17.90;99.90;;;;;;10218998;29;20512;-75
2022/10/31 13:13:14;;;;;;;9.70;4.30;;;17.90;99.90;;;;;;10212054;29;20102;-79
2022/10/31 13:18:26;;;;;;;11.00;4.15;;;17.90;99.90;;;;;;10225609;28;20052;-78
2022/10/31 13:23:31;;;;;;;10.80;4.18;;;17.90;99.90;;;;;;10214764;29;20052;-77
2022/10/31 13:28:41;;;;;;;9.07;4.22;;;18.00;99.90;;;;;;10213545;29;20055;-79
2022/10/31 13:33:49;;;;;;;9.73;4.45;;;18.30;99.90;;;;;;10209065;29;20154;-80
2022/10/31 13:38:55;;;;;;;11.48;4.72;;;18.40;99.90;;;;;;10232393;29;20449;-78
2022/10/31 13:44:13;;;;;;;11.15;4.65;;;18.60;99.90;;;;;;10219664;29;20458;-78
2022/10/31 13:49:37;;;;;;;11.07;4.82;;;18.60;99.90;;;;;;10240946;29;20054;-76
2022/10/31 13:54:42;;;;;;;13.10;5.60;;;19.50;99.00;;;;;;10235941;29;20055;-76
2022/10/31 13:59:51;;;;;;;11.52;4.78;;;19.90;97.70;;;;;;10240443;29;20133;-78
2022/10/31 14:04:59;;;;;;;10.98;4.50;;;19.50;98.10;;;;;;10234567;29;20094;-78
2022/10/31 14:10:06;;;;;;;12.32;4.57;;;19.40;98.10;;;;;;10244224;29;20047;-77
2022/10/31 14:15:17;;;;;;;14.18;4.55;;;20.20;97.70;;;;;;10239801;29;20126;-80
2022/10/31 14:20:41;;;;;;;8.93;4.00;;;21.20;96.70;;;;;;10224994;29;20122;-78
2022/10/31 14:25:43;;;;;;;9.02;3.92;;;24.00;92.90;;;;;;10218258;29;20085;-76
2022/10/31 14:30:53;;;;;;;11.20;4.22;;;26.20;85.90;;;;;;10213624;29;20056;-79
2022/10/31 14:36:02;;;;;;;29.92;18.52;;;27.80;75.60;;;;;;10225203;29;20106;-79
2022/10/31 14:41:26;;;;;;;10.00;3.85;;;28.70;69.20;;;;;;10223765;29;20071;-78
2022/10/31 14:46:45;;;;;;;8.48;4.03;;;29.90;64.90;;;;;;10200587;29;20052;-76
2022/10/31 14:51:49;;;;;;;9.52;4.00;;;29.40;62.70;;;;;;10211050;29;20103;-77
2022/10/31 14:56:55;;;;;;;8.80;3.63;;;28.50;64.30;;;;;;10209938;29;20130;-80
2022/10/31 15:02:00;;;;;;;8.82;3.47;;;28.80;63.50;;;;;;10218021;29;20086;-81
2022/10/31 15:07:09;;;;;;;8.82;3.70;;;29.00;63.60;;;;;;10249102;29;20051;-77
2022/10/31 15:12:26;;;;;;;8.82;3.60;;;29.20;61.50;;;;;;10173751;28;20119;-78
2022/10/31 15:17:28;;;;;;;10.77;3.83;;;28.50;62.00;;;;;;10180846;29;20048;-78
2022/10/31 15:22:32;;;;;;;9.27;4.43;;;26.40;67.20;;;;;;10229915;29;20075;-76
2022/10/31 15:27:35;;;;;;;13.35;5.38;;;24.90;71.00;;;;;;10216737;29;20052;-77
2022/10/31 15:32:36;;;;;;;19.42;6.30;;;23.90;74.50;;;;;;10238451;29;20078;-78
2022/10/31 15:37:40;;;;;;;11.82;4.90;;;23.40;76.40;;;;;;10234992;29;20686;-77
2022/10/31 15:42:43;;;;;;;16.02;8.98;;;22.60;80.40;;;;;;10216411;28;20103;-77
2022/10/31 15:47:50;;;;;;;11.30;4.65;;;22.10;82.90;;;;;;10230900;29;20481;-77
2022/10/31 15:52:53;;;;;;;10.80;4.10;;;21.40;86.10;;;;;;10187235;29;20561;-78
2022/10/31 15:57:59;;;;;;;13.35;4.90;;;21.00;89.10;;;;;;10213704;29;20466;-77
2022/10/31 16:03:07;;;;;;;22.45;10.82;;;20.60;90.20;;;;;;10231851;29;20039;-77
2022/10/31 16:08:33;;;;;;;11.27;4.60;;;20.20;91.30;;;;;;10221537;29;20074;-77
2022/10/31 16:13:38;;;;;;;12.48;5.43;;;19.80;92.90;;;;;;10231491;29;20463;-77
2022/10/31 16:18:43;;;;;;;13.05;4.28;;;19.50;94.20;;;;;;10209398;29;20058;-78
2022/10/31 16:23:51;;;;;;;9.75;3.85;;;19.20;95.00;;;;;;10236180;29;20485;-77
2022/10/31 16:28:55;;;;;;;11.95;3.72;;;18.80;96.70;;;;;;10226758;29;20078;-78
2022/10/31 16:34:15;;;;;;;10.20;4.72;;;18.40;98.00;;;;;;10239656;29;20051;-78
2022/10/31 16:39:19;;;;;;;12.55;4.47;;;18.20;99.10;;;;;;10226111;29;20158;-78
2022/10/31 16:44:24;;;;;;;9.48;4.35;;;17.90;99.80;;;;;;10244298;28;20154;-77
2022/10/31 16:49:26;;;;;;;15.43;5.18;;;17.70;99.90;;;;;;10218275;28;20059;-76
2022/10/31 16:54:30;;;;;;;11.95;4.72;;;17.50;99.90;;;;;;10206245;29;20567;-79
2022/10/31 16:59:33;;;;;;;12.23;6.60;;;17.30;99.90;;;;;;10217454;29;20057;-77
2022/10/31 17:04:35;;;;;;;12.50;4.78;;;17.10;99.90;;;;;;10233225;29;20051;-78
2022/10/31 17:09:38;;;;;;;10.63;4.10;;;16.90;99.90;;;;;;10216216;29;20146;-77
2022/10/31 17:14:40;;;;;;;9.68;4.35;;;16.70;99.90;;;;;;10215883;29;20078;-80
2022/10/31 17:19:42;;;;;;;15.50;5.70;;;16.50;99.90;;;;;;10213598;29;20048;-80
2022/10/31 17:24:45;;;;;;;14.50;5.80;;;16.40;99.90;;;;;;10215574;29;20055;-79
2022/10/31 17:29:47;;;;;;;15.20;7.40;;;16.30;99.90;;;;;;10226542;29;20469;-80
2022/10/31 17:34:49;;;;;;;13.65;6.78;;;16.20;99.90;;;;;;10246825;29;20055;-76
2022/10/31 17:39:52;;;;;;;35.17;18.83;;;16.10;99.90;;;;;;10270298;29;20106;-78
2022/10/31 17:44:54;;;;;;;14.10;6.22;;;16.00;99.90;;;;;;10265099;29;20105;-77
2022/10/31 17:49:56;;;;;;;10.05;5.78;;;15.80;99.90;;;;;;10224877;29;20058;-77
2022/10/31 17:55:00;;;;;;;11.38;6.25;;;15.50;99.90;;;;;;10219500;29;20107;-79
2022/10/31 18:00:02;;;;;;;13.05;6.22;;;15.50;99.90;;;;;;10248842;29;20099;-78
2022/10/31 18:05:05;;;;;;;12.38;6.60;;;15.50;99.90;;;;;;10249765;29;20043;-77
2022/10/31 18:10:10;;;;;;;21.38;10.27;;;15.30;99.90;;;;;;10227013;29;20059;-76
2022/10/31 18:15:12;;;;;;;17.70;8.73;;;14.90;99.90;;;;;;10211293;29;20065;-79
2022/10/31 18:20:14;;;;;;;17.10;8.07;;;14.90;99.90;;;;;;10232796;29;20059;-78
2022/10/31 18:25:17;;;;;;;14.93;9.27;;;15.00;99.90;;;;;;10235205;28;20565;-78
2022/10/31 18:30:19;;;;;;;21.13;9.60;;;15.00;99.90;;;;;;10226571;29;20055;-79
2022/10/31 18:35:21;;;;;;;21.65;10.55;;;14.70;99.90;;;;;;10217548;29;20083;-77
2022/10/31 18:40:24;;;;;;;20.73;11.75;;;14.60;99.90;;;;;;10214522;29;20153;-78
2022/10/31 18:45:26;;;;;;;22.25;11.10;;;14.70;99.90;;;;;;10223190;29;20047;-77
2022/10/31 18:50:28;;;;;;;31.90;13.27;;;14.80;99.90;;;;;;10218345;29;20416;-77
2022/10/31 18:55:32;;;;;;;21.73;8.93;;;14.70;99.90;;;;;;10225282;29;20078;-77
2022/10/31 19:00:33;;;;;;;19.60;8.75;;;14.70;99.90;;;;;;10207233;29;20179;-77
2022/10/31 19:05:35;;;;;;;16.50;8.85;;;14.60;99.90;;;;;;10214491;29;20091;-76
2022/10/31 19:10:40;;;;;;;20.27;9.68;;;14.30;99.90;;;;;;10204196;29;20051;-77
2022/10/31 19:15:42;;;;;;;19.23;9.52;;;14.20;99.90;;;;;;10181600;29;20130;-78
2022/10/31 19:20:44;;;;;;;16.60;9.23;;;14.20;99.90;;;;;;10209420;29;20405;-79
2022/10/31 19:25:47;;;;;;;20.20;9.75;;;14.10;99.90;;;;;;10265807;29;20158;-80
2022/10/31 19:30:54;;;;;;;16.50;9.10;;;14.20;99.90;;;;;;10268128;29;20054;-78
2022/10/31 19:35:59;;;;;;;18.05;9.10;;;14.10;99.90;;;;;;10229016;28;20111;-78
2022/10/31 19:41:08;;;;;;;19.50;10.63;;;13.70;99.90;;;;;;10217660;29;20051;-82
2022/10/31 19:46:12;;;;;;;21.13;10.40;;;13.60;99.90;;;;;;10219735;29;20111;-78
2022/10/31 19:51:18;;;;;;;15.35;9.38;;;13.50;99.90;;;;;;10212193;29;20142;-77
2022/10/31 19:56:23;;;;;;;16.60;9.20;;;13.60;99.90;;;;;;10239862;29;20079;-79
2022/10/31 20:01:26;;;;;;;23.98;10.70;;;13.70;99.90;;;;;;10222657;29;20453;-76
2022/10/31 20:06:30;;;;;;;18.42;10.23;;;13.80;99.90;;;;;;10207987;29;20052;-80
2022/10/31 20:11:35;;;;;;;18.42;10.63;;;13.90;99.90;;;;;;10213670;29;20047;-80
2022/10/31 20:16:38;;;;;;;19.17;10.70;;;13.90;99.90;;;;;;10206280;29;20135;-80
2022/10/31 20:21:40;;;;;;;17.88;9.68;;;14.00;99.90;;;;;;10235304;29;20051;-80
2022/10/31 20:26:44;;;;;;;18.88;9.63;;;13.80;99.90;;;;;;10241177;29;20043;-79
2022/10/31 20:31:47;;;;;;;19.58;9.63;;;13.80;99.90;;;;;;10239857;29;20082;-81
2022/10/31 20:36:54;;;;;;;16.60;9.52;;;13.90;99.90;;;;;;10249333;29;20109;-77
2022/10/31 20:41:58;;;;;;;20.00;9.65;;;14.00;99.90;;;;;;10210535;29;20417;-79
2022/10/31 20:47:01;;;;;;;18.65;9.85;;;14.10;99.90;;;;;;10212479;29;20106;-77
2022/10/31 20:52:03;;;;;;;17.85;9.95;;;14.20;99.90;;;;;;10241927;29;20055;-78
2022/10/31 20:57:06;;;;;;;21.52;9.65;;;14.30;99.90;;;;;;10213777;29;20132;-79
2022/10/31 21:02:11;;;;;;;20.42;10.40;;;14.10;99.90;;;;;;10213612;29;20489;-77
2022/10/31 21:07:13;;;;;;;17.73;9.05;;;14.00;99.90;;;;;;10208004;29;20059;-79
2022/10/31 21:12:18;;;;;;;21.40;9.80;;;14.00;99.90;;;;;;10225434;29;20063;-78
2022/10/31 21:17:20;;;;;;;21.17;9.52;;;14.00;99.90;;;;;;10245299;28;20060;-80
2022/10/31 21:22:22;;;;;;;18.35;9.18;;;14.00;99.90;;;;;;10250372;29;20083;-76
2022/10/31 21:27:30;;;;;;;22.55;11.88;;;14.00;99.90;;;;;;10212850;28;20051;-76
2022/10/31 21:32:32;;;;;;;14.73;9.15;;;14.00;99.90;;;;;;10244796;29;20051;-76
2022/10/31 21:37:34;;;;;;;17.55;8.65;;;14.10;99.90;;;;;;10240482;28;20518;-78
2022/10/31 21:42:38;;;;;;;19.25;10.18;;;14.00;99.90;;;;;;10234133;28;20106;-75
2022/10/31 21:47:43;;;;;;;18.38;8.75;;;14.10;99.90;;;;;;10216054;29;20143;-79
2022/10/31 21:52:48;;;;;;;16.90;9.23;;;14.10;99.90;;;;;;10246888;29;20407;-75
2022/10/31 21:57:51;;;;;;;16.65;8.57;;;14.10;99.90;;;;;;10215839;29;20102;-79
2022/10/31 22:02:53;;;;;;;21.35;9.75;;;14.10;99.90;;;;;;10231587;29;20489;-79
2022/10/31 22:07:56;;;;;;;18.55;10.15;;;13.80;99.90;;;;;;10220211;29;20122;-78
2022/10/31 22:12:59;;;;;;;20.30;9.38;;;13.80;99.90;;;;;;10236379;29;20071;-80
2022/10/31 22:18:01;;;;;;;18.83;10.57;;;13.90;99.90;;;;;;10210981;29;20055;-77
2022/10/31 22:23:02;;;;;;;21.98;9.07;;;13.80;99.90;;;;;;10216792;29;20083;-78
2022/10/31 22:28:06;;;;;;;22.30;9.98;;;13.80;99.90;;;;;;10216070;29;20116;-79
2022/10/31 22:33:08;;;;;;;19.83;8.98;;;13.80;99.90;;;;;;10248325;29;20090;-77
2022/10/31 22:38:10;;;;;;;17.52;9.68;;;13.80;99.90;;;;;;10243216;29;20067;-81
2022/10/31 22:43:13;;;;;;;20.52;10.57;;;13.80;99.90;;;;;;10234593;29;20457;-78
2022/10/31 22:48:15;;;;;;;16.10;9.98;;;13.70;99.90;;;;;;10251239;29;20416;-80
2022/10/31 22:53:17;;;;;;;16.98;9.55;;;13.60;99.90;;;;;;10235332;28;20425;-79
2022/10/31 22:58:20;;;;;;;16.85;9.13;;;13.50;99.90;;;;;;10212038;29;20079;-78
